Time;durP1;ratioP1;P1;durP2;ratioP2;P2;SDS_P1;SDS_P2;PMS_P1;PMS_P2;Temp;Humidity;BMP_temperature;BMP_pressure;BME280_temperature;BME280_humidity;BME280_pressure;Samples;Min_cycle;Max_cycle;Signal;HPM_P1;HPM_P2
2023/08/15 00:01:11;;;;;;;5.47;4.97;;;;;;;;;;10068147;28;20061;-68
2023/08/15 00:06:03;;;;;;;6.32;4.68;;;;;;;;;;10067723;28;20064;-70
2023/08/15 00:10:55;;;;;;;10.30;5.35;;;;;;;;;;10066752;28;20056;-69
2023/08/15 00:15:46;;;;;;;7.55;5.18;;;;;;;;;;10068025;28;20048;-68
2023/08/15 00:20:38;;;;;;;6.82;5.03;;;;;;;;;;10078358;28;20364;-68
2023/08/15 00:25:30;;;;;;;6.28;5.28;;;;;;;;;;10066297;28;20049;-71
2023/08/15 00:30:22;;;;;;;6.55;4.80;;;;;;;;;;10066599;28;20384;-70
2023/08/15 00:35:14;;;;;;;6.05;4.55;;;;;;;;;;10048542;28;20049;-69
2023/08/15 00:40:07;;;;;;;5.20;4.30;;;;;;;;;;10045912;28;20046;-70
2023/08/15 00:44:58;;;;;;;5.35;4.47;;;;;;;;;;10086698;28;20045;-69
2023/08/15 00:49:52;;;;;;;6.18;4.72;;;;;;;;;;10064742;28;20099;-69
2023/08/15 00:54:46;;;;;;;5.93;4.07;;;;;;;;;;10065699;28;20092;-69
2023/08/15 00:59:40;;;;;;;6.00;4.47;;;;;;;;;;10049608;28;20452;-67
2023/08/15 01:04:32;;;;;;;5.20;4.70;;;;;;;;;;10047742;28;20464;-68
2023/08/15 01:09:24;;;;;;;4.70;4.30;;;;;;;;;;10064054;28;20137;-67
2023/08/15 01:14:19;;;;;;;4.82;4.30;;;;;;;;;;10064382;28;20045;-68
2023/08/15 01:19:37;;;;;;;7.45;4.95;;;;;;;;;;10076644;28;20536;-67
2023/08/15 01:24:30;;;;;;;5.95;5.13;;;;;;;;;;10047353;28;20045;-68
2023/08/15 01:29:22;;;;;;;5.10;4.55;;;;;;;;;;10047389;28;20132;-68
2023/08/15 01:34:48;;;;;;;6.45;4.82;;;;;;;;;;10063139;28;20379;-69
2023/08/15 01:39:40;;;;;;;5.22;4.15;;;;;;;;;;10032585;28;20131;-68
2023/08/15 01:44:33;;;;;;;4.65;4.30;;;;;;;;;;10064397;28;20411;-68
2023/08/15 01:49:25;;;;;;;6.00;5.28;;;;;;;;;;10046224;28;20053;-69
2023/08/15 01:54:17;;;;;;;5.13;4.63;;;;;;;;;;10065163;28;20060;-67
2023/08/15 01:59:09;;;;;;;5.28;4.78;;;;;;;;;;10065551;28;20041;-69
2023/08/15 02:04:01;;;;;;;4.82;4.43;;;;;;;;;;10071773;28;20597;-67
2023/08/15 02:08:53;;;;;;;5.07;4.68;;;;;;;;;;10054347;28;20045;-68
2023/08/15 02:13:45;;;;;;;5.78;4.97;;;;;;;;;;10069596;28;20049;-69
2023/08/15 02:18:37;;;;;;;6.40;4.93;;;;;;;;;;10070311;28;20046;-69
2023/08/15 02:23:34;;;;;;;6.07;5.00;;;;;;;;;;10070226;28;20072;-69
2023/08/15 02:28:25;;;;;;;5.40;4.88;;;;;;;;;;10071025;28;20050;-70
2023/08/15 02:33:18;;;;;;;9.88;5.35;;;;;;;;;;10069695;28;20049;-69
2023/08/15 02:38:10;;;;;;;6.30;5.65;;;;;;;;;;10030099;28;20038;-69
2023/08/15 02:43:02;;;;;;;5.65;5.00;;;;;;;;;;10042920;28;20054;-68
2023/08/15 02:47:54;;;;;;;7.53;4.65;;;;;;;;;;10051329;28;20104;-70
2023/08/15 02:52:46;;;;;;;6.28;5.68;;;;;;;;;;10067471;28;20104;-69
2023/08/15 02:57:38;;;;;;;5.30;4.82;;;;;;;;;;10067270;28;20049;-69
2023/08/15 03:02:29;;;;;;;6.85;4.80;;;;;;;;;;10066937;28;20038;-69
2023/08/15 03:07:21;;;;;;;5.90;4.97;;;;;;;;;;10067111;28;20043;-69
2023/08/15 03:12:14;;;;;;;10.70;6.15;;;;;;;;;;10040937;28;20041;-69
2023/08/15 03:17:07;;;;;;;7.20;6.07;;;;;;;;;;10048574;28;20056;-70
2023/08/15 03:21:59;;;;;;;7.18;5.43;;;;;;;;;;10064967;28;20029;-69
2023/08/15 03:26:51;;;;;;;7.75;6.20;;;;;;;;;;10048523;28;20038;-68
2023/08/15 03:31:43;;;;;;;6.20;5.70;;;;;;;;;;10066180;28;20052;-69
2023/08/15 03:36:36;;;;;;;7.38;5.05;;;;;;;;;;10072996;28;20128;-68
2023/08/15 03:41:28;;;;;;;5.47;4.97;;;;;;;;;;10049566;28;20046;-68
2023/08/15 03:46:20;;;;;;;9.27;6.07;;;;;;;;;;10073282;28;20459;-69
2023/08/15 03:51:13;;;;;;;7.90;5.63;;;;;;;;;;10091132;28;20368;-68
2023/08/15 03:56:23;;;;;;;6.20;5.65;;;;;;;;;;10048546;28;20868;-69
2023/08/15 04:01:15;;;;;;;6.63;6.03;;;;;;;;;;10064713;28;20045;-68
2023/08/15 04:06:08;;;;;;;6.65;6.05;;;;;;;;;;10012293;28;20086;-70
2023/08/15 04:11:00;;;;;;;6.30;5.80;;;;;;;;;;10060234;28;20041;-70
2023/08/15 04:15:52;;;;;;;7.68;5.35;;;;;;;;;;10062089;28;20053;-69
2023/08/15 04:20:45;;;;;;;6.32;5.75;;;;;;;;;;10063303;28;20050;-69
2023/08/15 04:25:38;;;;;;;6.47;5.97;;;;;;;;;;10063165;28;20088;-69
2023/08/15 04:30:31;;;;;;;7.03;5.38;;;;;;;;;;10047344;28;20131;-67
2023/08/15 04:35:23;;;;;;;7.53;5.75;;;;;;;;;;10068466;28;20044;-69
2023/08/15 04:40:30;;;;;;;11.00;6.72;;;;;;;;;;10047795;28;20379;-69
2023/08/15 04:45:23;;;;;;;6.53;5.57;;;;;;;;;;10015370;28;20042;-70
2023/08/15 04:50:15;;;;;;;6.97;5.57;;;;;;;;;;10025014;28;20060;-69
2023/08/15 04:55:10;;;;;;;6.20;5.60;;;;;;;;;;10061262;28;20117;-70
2023/08/15 05:00:15;;;;;;;6.28;5.78;;;;;;;;;;10043288;28;20049;-69
2023/08/15 05:05:11;;;;;;;6.40;5.82;;;;;;;;;;10057412;28;20048;-68
2023/08/15 05:10:05;;;;;;;6.65;5.63;;;;;;;;;;10052943;28;20621;-67
2023/08/15 05:14:57;;;;;;;6.63;6.03;;;;;;;;;;10053556;28;20045;-70
2023/08/15 05:19:49;;;;;;;7.82;5.55;;;;;;;;;;10044651;28;20375;-69
2023/08/15 05:24:41;;;;;;;6.05;5.45;;;;;;;;;;10004061;28;20440;-70
2023/08/15 05:29:33;;;;;;;5.78;5.28;;;;;;;;;;10043411;28;20149;-69
2023/08/15 05:34:25;;;;;;;6.28;5.68;;;;;;;;;;10063897;28;20045;-68
2023/08/15 05:39:17;;;;;;;6.68;6.18;;;;;;;;;;10072654;28;20037;-69
2023/08/15 05:44:09;;;;;;;6.13;5.63;;;;;;;;;;10071077;28;20045;-70
2023/08/15 05:49:01;;;;;;;7.60;5.65;;;;;;;;;;10084575;28;20080;-70
2023/08/15 05:53:53;;;;;;;8.77;6.07;;;;;;;;;;10069458;28;20064;-69
2023/08/15 05:58:45;;;;;;;10.50;6.13;;;;;;;;;;10070413;28;20168;-69
2023/08/15 06:03:37;;;;;;;6.20;5.60;;;;;;;;;;10071834;28;20146;-67
2023/08/15 06:08:43;;;;;;;7.00;6.30;;;;;;;;;;10068935;28;20046;-69
2023/08/15 06:13:35;;;;;;;6.75;6.15;;;;;;;;;;10057352;28;20088;-70
2023/08/15 06:18:27;;;;;;;6.85;6.15;;;;;;;;;;10071093;28;20049;-70
2023/08/15 06:23:20;;;;;;;23.98;9.38;;;;;;;;;;10070882;28;20410;-70
2023/08/15 06:28:12;;;;;;;7.30;6.13;;;;;;;;;;10070360;28;20046;-70
2023/08/15 06:33:04;;;;;;;8.25;7.55;;;;;;;;;;10067594;28;20053;-69
2023/08/15 06:37:57;;;;;;;10.18;6.78;;;;;;;;;;10068574;28;20103;-68
2023/08/15 06:42:48;;;;;;;7.88;7.28;;;;;;;;;;10069471;28;20045;-70
2023/08/15 06:47:40;;;;;;;9.20;8.18;;;;;;;;;;10055350;28;20501;-69
2023/08/15 06:52:32;;;;;;;8.93;8.23;;;;;;;;;;10069542;28;20372;-70
2023/08/15 06:57:24;;;;;;;9.68;8.88;;;;;;;;;;10069412;28;20152;-70
2023/08/15 07:02:16;;;;;;;8.10;7.30;;;;;;;;;;10050224;28;20071;-68
2023/08/15 07:07:08;;;;;;;10.20;8.82;;;;;;;;;;10068042;28;20467;-69
2023/08/15 07:12:02;;;;;;;8.52;7.55;;;;;;;;;;10051719;28;20048;-70
2023/08/15 07:16:54;;;;;;;10.18;8.20;;;;;;;;;;10041563;28;20118;-70
2023/08/15 07:21:46;;;;;;;9.10;7.50;;;;;;;;;;10048666;28;20046;-69
2023/08/15 07:26:38;;;;;;;7.57;6.97;;;;;;;;;;10036175;28;20423;-68
2023/08/15 07:31:30;;;;;;;8.68;7.88;;;;;;;;;;10037998;28;20049;-69
2023/08/15 07:36:22;;;;;;;8.77;7.93;;;;;;;;;;10068342;28;20040;-67
2023/08/15 07:41:14;;;;;;;8.45;7.65;;;;;;;;;;10067095;28;20045;-68
2023/08/15 07:46:06;;;;;;;8.45;7.63;;;;;;;;;;10065470;28;20499;-70
2023/08/15 07:50:58;;;;;;;8.20;7.55;;;;;;;;;;10064804;28;20052;-70
2023/08/15 07:55:51;;;;;;;9.88;8.48;;;;;;;;;;10049825;28;20072;-69
2023/08/15 08:00:43;;;;;;;9.43;8.48;;;;;;;;;;10035296;28;20058;-71
2023/08/15 08:05:35;;;;;;;10.23;9.32;;;;;;;;;;10057796;28;20464;-72
2023/08/15 08:10:27;;;;;;;8.82;7.95;;;;;;;;;;10067840;28;20281;-69
2023/08/15 08:15:23;;;;;;;8.68;7.90;;;;;;;;;;10050332;28;20425;-72
2023/08/15 08:20:17;;;;;;;8.57;7.80;;;;;;;;;;10066395;28;20041;-69
2023/08/15 08:25:19;;;;;;;7.45;6.82;;;;;;;;;;10066477;28;20353;-70
2023/08/15 08:30:16;;;;;;;10.05;7.85;;;;;;;;;;10054434;28;20076;-71
2023/08/15 08:35:09;;;;;;;12.70;6.85;;;;;;;;;;10066024;28;20041;-71
2023/08/15 08:40:03;;;;;;;13.20;10.45;;;;;;;;;;10064437;28;20064;-71
2023/08/15 08:44:55;;;;;;;12.43;11.15;;;;;;;;;;10060841;28;20052;-71
2023/08/15 08:49:48;;;;;;;11.05;9.85;;;;;;;;;;10065932;28;20073;-69
2023/08/15 08:54:40;;;;;;;11.85;10.43;;;;;;;;;;10027572;28;20092;-70
2023/08/15 08:59:47;;;;;;;14.43;9.50;;;;;;;;;;10048974;28;20450;-70
2023/08/15 09:04:40;;;;;;;10.50;8.57;;;;;;;;;;10045105;28;20045;-71
2023/08/15 09:09:32;;;;;;;10.55;9.43;;;;;;;;;;10062194;28;20475;-70
2023/08/15 09:14:24;;;;;;;12.48;8.98;;;;;;;;;;10057612;28;20041;-68
2023/08/15 09:19:16;;;;;;;13.40;10.20;;;;;;;;;;10060755;28;20282;-72
2023/08/15 09:24:08;;;;;;;20.35;9.82;;;;;;;;;;10042170;28;20420;-73
2023/08/15 09:29:02;;;;;;;11.23;8.77;;;;;;;;;;10023068;28;20077;-72
2023/08/15 09:33:54;;;;;;;9.00;8.20;;;;;;;;;;10041988;28;20468;-74
2023/08/15 09:38:50;;;;;;;9.60;8.68;;;;;;;;;;10059773;28;20038;-72
2023/08/15 09:43:50;;;;;;;8.65;7.43;;;;;;;;;;10048844;28;20057;-72
2023/08/15 09:48:44;;;;;;;11.32;10.23;;;;;;;;;;10023205;28;20120;-74
2023/08/15 09:53:38;;;;;;;8.73;7.72;;;;;;;;;;10024830;28;20050;-72
2023/08/15 09:58:31;;;;;;;11.32;7.63;;;;;;;;;;10034518;28;20042;-73
2023/08/15 10:03:43;;;;;;;8.38;7.57;;;;;;;;;;10062308;28;20111;-72
2023/08/15 10:08:38;;;;;;;8.18;6.72;;;;;;;;;;10046103;28;20058;-74
2023/08/15 10:13:36;;;;;;;10.85;7.00;;;;;;;;;;10061861;28;20049;-73
2023/08/15 10:18:29;;;;;;;10.15;8.25;;;;;;;;;;10003365;28;20104;-74
2023/08/15 10:23:32;;;;;;;6.95;6.35;;;;;;;;;;10068221;28;20080;-73
2023/08/15 10:28:29;;;;;;;9.20;8.35;;;;;;;;;;10068352;28;20099;-75
2023/08/15 10:33:22;;;;;;;6.20;5.60;;;;;;;;;;10050632;28;20076;-74
2023/08/15 10:38:15;;;;;;;6.20;5.60;;;;;;;;;;10067970;28;20041;-74
2023/08/15 10:43:10;;;;;;;6.25;5.10;;;;;;;;;;10067569;28;20080;-73
2023/08/15 10:48:03;;;;;;;7.78;6.00;;;;;;;;;;10037594;28;20069;-73
2023/08/15 10:52:58;;;;;;;7.25;5.43;;;;;;;;;;10048906;28;20127;-72
2023/08/15 10:57:50;;;;;;;7.18;6.45;;;;;;;;;;10035955;28;20082;-73
2023/08/15 11:02:42;;;;;;;9.48;6.32;;;;;;;;;;10041187;28;20070;-72
2023/08/15 11:07:34;;;;;;;6.00;5.50;;;;;;;;;;10030755;28;20061;-74
2023/08/15 11:12:26;;;;;;;6.85;6.25;;;;;;;;;;10058900;28;20087;-72
2023/08/15 11:17:18;;;;;;;7.60;6.90;;;;;;;;;;10066601;28;20041;-72
2023/08/15 11:22:11;;;;;;;6.38;5.65;;;;;;;;;;10050501;28;20475;-74
2023/08/15 11:27:03;;;;;;;7.30;6.13;;;;;;;;;;10069813;28;20099;-72
2023/08/15 11:31:58;;;;;;;6.40;5.82;;;;;;;;;;10067600;28;20045;-73
2023/08/15 11:36:51;;;;;;;8.80;5.40;;;;;;;;;;10063808;28;20065;-72
2023/08/15 11:41:44;;;;;;;5.32;4.93;;;;;;;;;;10049416;28;20503;-72
2023/08/15 11:46:41;;;;;;;5.90;5.30;;;;;;;;;;10042219;28;20380;-73
2023/08/15 11:51:36;;;;;;;13.93;6.57;;;;;;;;;;10025050;28;20141;-72
2023/08/15 11:56:49;;;;;;;9.77;7.05;;;;;;;;;;10026786;28;20050;-74
2023/08/15 12:01:43;;;;;;;6.05;5.53;;;;;;;;;;10029997;28;20132;-74
2023/08/15 12:06:36;;;;;;;5.25;4.82;;;;;;;;;;10068459;28;20037;-74
2023/08/15 12:11:28;;;;;;;5.15;4.75;;;;;;;;;;10096307;28;20120;-73
2023/08/15 12:16:20;;;;;;;6.55;4.93;;;;;;;;;;10062829;28;20101;-74
2023/08/15 12:21:12;;;;;;;7.53;4.80;;;;;;;;;;10063488;28;20411;-74
2023/08/15 12:26:06;;;;;;;5.78;4.47;;;;;;;;;;10065723;28;20076;-73
2023/08/15 12:30:58;;;;;;;12.95;4.80;;;;;;;;;;10082761;28;20053;-74
2023/08/15 12:35:50;;;;;;;5.40;4.30;;;;;;;;;;10065380;28;20054;-72
2023/08/15 12:40:42;;;;;;;7.60;4.88;;;;;;;;;;10092792;28;20118;-73
2023/08/15 12:45:33;;;;;;;4.60;4.20;;;;;;;;;;10072791;28;20415;-73
2023/08/15 12:50:25;;;;;;;6.75;4.38;;;;;;;;;;10063724;28;20140;-73
2023/08/15 12:55:17;;;;;;;6.63;4.13;;;;;;;;;;10067162;28;20049;-74
2023/08/15 13:00:10;;;;;;;4.15;3.80;;;;;;;;;;10061766;28;20087;-74
2023/08/15 13:05:04;;;;;;;9.75;4.95;;;;;;;;;;10062716;28;20080;-73
2023/08/15 13:09:56;;;;;;;6.85;4.70;;;;;;;;;;10064038;28;20092;-74
2023/08/15 13:14:49;;;;;;;5.70;5.15;;;;;;;;;;10065812;28;20061;-74
2023/08/15 13:19:41;;;;;;;6.47;4.10;;;;;;;;;;10062978;28;20149;-74
2023/08/15 13:24:32;;;;;;;4.40;3.95;;;;;;;;;;10045428;28;20064;-73
2023/08/15 13:29:24;;;;;;;4.93;4.22;;;;;;;;;;10064514;28;20101;-74
2023/08/15 13:34:17;;;;;;;4.47;4.07;;;;;;;;;;10048639;28;20054;-74
2023/08/15 13:39:10;;;;;;;5.70;4.57;;;;;;;;;;10059569;28;20085;-74
2023/08/15 13:44:03;;;;;;;6.80;4.95;;;;;;;;;;10063339;28;20053;-74
2023/08/15 13:48:54;;;;;;;7.43;4.55;;;;;;;;;;10064417;28;20128;-74
2023/08/15 13:53:48;;;;;;;6.70;4.20;;;;;;;;;;10061492;28;20494;-74
2023/08/15 13:58:40;;;;;;;5.53;4.18;;;;;;;;;;10069153;28;20061;-72
2023/08/15 14:03:32;;;;;;;4.28;3.97;;;;;;;;;;10069393;28;20038;-73
2023/08/15 14:08:24;;;;;;;4.97;4.47;;;;;;;;;;10099250;28;20387;-73
2023/08/15 14:13:16;;;;;;;4.97;4.05;;;;;;;;;;10110713;28;20048;-73
2023/08/15 14:18:08;;;;;;;5.03;4.05;;;;;;;;;;10072714;28;20457;-74
2023/08/15 14:23:00;;;;;;;3.63;3.33;;;;;;;;;;10067860;28;20053;-74
2023/08/15 14:27:52;;;;;;;4.93;3.30;;;;;;;;;;10068303;28;20052;-73
2023/08/15 14:32:44;;;;;;;5.22;4.53;;;;;;;;;;10069777;28;20049;-74
2023/08/15 14:37:37;;;;;;;6.63;3.33;;;;;;;;;;10029247;28;20129;-73
2023/08/15 14:42:29;;;;;;;4.07;3.63;;;;;;;;;;10066316;28;20459;-74
2023/08/15 14:47:28;;;;;;;5.65;3.25;;;;;;;;;;10066988;28;20503;-73
2023/08/15 14:52:21;;;;;;;5.65;3.30;;;;;;;;;;10063657;28;20426;-74
2023/08/15 14:57:13;;;;;;;3.88;3.25;;;;;;;;;;10067308;28;20132;-73
2023/08/15 15:02:05;;;;;;;4.90;3.38;;;;;;;;;;10065521;28;20049;-74
2023/08/15 15:06:57;;;;;;;4.70;3.72;;;;;;;;;;10065358;28;20132;-72
2023/08/15 15:11:49;;;;;;;5.28;3.60;;;;;;;;;;10067375;28;20053;-75
2023/08/15 15:16:41;;;;;;;6.50;3.80;;;;;;;;;;10064560;28;20077;-74
2023/08/15 15:21:33;;;;;;;7.40;3.83;;;;;;;;;;10067826;28;20050;-73
2023/08/15 15:26:25;;;;;;;4.05;3.65;;;;;;;;;;10083539;28;20037;-74
2023/08/15 15:31:17;;;;;;;6.90;3.97;;;;;;;;;;10105852;28;20041;-73
2023/08/15 15:36:09;;;;;;;12.80;8.73;;;;;;;;;;10078160;28;20425;-74
2023/08/15 15:41:00;;;;;;;4.88;4.43;;;;;;;;;;10066544;28;20083;-71
2023/08/15 15:45:52;;;;;;;7.00;4.28;;;;;;;;;;10065437;28;20041;-71
2023/08/15 15:50:44;;;;;;;3.83;3.28;;;;;;;;;;10033619;28;20097;-73
2023/08/15 15:55:36;;;;;;;4.22;3.80;;;;;;;;;;10056924;28;20468;-71
2023/08/15 16:00:28;;;;;;;5.30;3.75;;;;;;;;;;10059363;28;20041;-74
2023/08/15 16:05:20;;;;;;;5.60;4.18;;;;;;;;;;10095098;28;20430;-74
2023/08/15 16:10:12;;;;;;;8.02;4.20;;;;;;;;;;10104233;28;20051;-74
2023/08/15 16:15:04;;;;;;;4.93;3.85;;;;;;;;;;10070881;28;20050;-74
2023/08/15 16:19:56;;;;;;;11.63;3.70;;;;;;;;;;10060464;28;20045;-74
2023/08/15 16:24:48;;;;;;;3.75;3.42;;;;;;;;;;10103272;28;20037;-75
2023/08/15 16:29:40;;;;;;;5.47;3.97;;;;;;;;;;10045650;28;20059;-74
2023/08/15 16:34:32;;;;;;;5.50;3.80;;;;;;;;;;10045479;28;20046;-72
2023/08/15 16:39:24;;;;;;;5.82;3.53;;;;;;;;;;10065941;28;20049;-74
2023/08/15 16:44:17;;;;;;;5.97;3.92;;;;;;;;;;10055370;28;20431;-73
2023/08/15 16:49:09;;;;;;;7.40;3.47;;;;;;;;;;10018578;28;20050;-72
2023/08/15 16:54:01;;;;;;;5.47;4.72;;;;;;;;;;10035833;28;20061;-74
2023/08/15 16:58:53;;;;;;;8.90;4.32;;;;;;;;;;10044251;28;20080;-72
2023/08/15 17:03:45;;;;;;;5.30;3.85;;;;;;;;;;10018962;28;20045;-72
2023/08/15 17:08:37;;;;;;;4.60;4.03;;;;;;;;;;10059399;28;20045;-74
2023/08/15 17:13:29;;;;;;;4.90;4.18;;;;;;;;;;10049222;28;20434;-74
2023/08/15 17:18:21;;;;;;;5.57;4.28;;;;;;;;;;10054587;28;20038;-74
2023/08/15 17:23:13;;;;;;;8.05;3.75;;;;;;;;;;10037114;28;20063;-74
2023/08/15 17:28:05;;;;;;;5.07;3.75;;;;;;;;;;10060165;28;20357;-73
2023/08/15 17:32:57;;;;;;;4.75;4.13;;;;;;;;;;10068374;28;20073;-74
2023/08/15 17:37:49;;;;;;;12.85;5.18;;;;;;;;;;10060163;28;20527;-73
2023/08/15 17:42:41;;;;;;;4.72;4.32;;;;;;;;;;10068402;28;20111;-74
2023/08/15 17:47:33;;;;;;;7.53;4.35;;;;;;;;;;10086450;28;20065;-74
2023/08/15 17:52:25;;;;;;;4.97;4.25;;;;;;;;;;10048974;28;20054;-74
2023/08/15 17:57:16;;;;;;;4.85;4.30;;;;;;;;;;10030212;28;20049;-74
2023/08/15 18:02:08;;;;;;;7.97;4.20;;;;;;;;;;10076851;28;20102;-74
2023/08/15 18:07:00;;;;;;;9.32;4.57;;;;;;;;;;10058962;28;20057;-72
2023/08/15 18:11:52;;;;;;;6.18;5.05;;;;;;;;;;10058146;28;20148;-74
2023/08/15 18:16:44;;;;;;;7.18;4.80;;;;;;;;;;10058880;28;20045;-74
2023/08/15 18:21:40;;;;;;;5.03;4.53;;;;;;;;;;10049288;28;20438;-72
2023/08/15 18:26:32;;;;;;;5.53;4.15;;;;;;;;;;10053107;28;20042;-72
2023/08/15 18:31:24;;;;;;;5.32;4.82;;;;;;;;;;10054495;28;20050;-71
2023/08/15 18:36:16;;;;;;;5.88;4.50;;;;;;;;;;10050203;28;20037;-73
2023/08/15 18:41:08;;;;;;;5.82;4.88;;;;;;;;;;10058110;28;20050;-73
2023/08/15 18:46:00;;;;;;;8.77;5.00;;;;;;;;;;10057086;28;20103;-73
2023/08/15 18:50:52;;;;;;;7.93;5.72;;;;;;;;;;10063112;28;20056;-71
2023/08/15 18:55:44;;;;;;;5.10;4.70;;;;;;;;;;10076427;28;20053;-71
2023/08/15 19:00:37;;;;;;;6.85;4.72;;;;;;;;;;10041152;28;20090;-71
2023/08/15 19:05:29;;;;;;;5.72;5.18;;;;;;;;;;10064319;28;20136;-72
2023/08/15 19:10:22;;;;;;;6.25;5.60;;;;;;;;;;10077537;28;20167;-71
2023/08/15 19:15:20;;;;;;;7.35;5.50;;;;;;;;;;10052371;28;20129;-73
2023/08/15 19:20:12;;;;;;;9.25;5.13;;;;;;;;;;10051718;28;20085;-71
2023/08/15 19:25:04;;;;;;;5.72;5.13;;;;;;;;;;10065295;28;20091;-70
2023/08/15 19:29:56;;;;;;;8.18;5.25;;;;;;;;;;10064329;28;20136;-72
2023/08/15 19:34:48;;;;;;;6.15;5.25;;;;;;;;;;10072079;28;20087;-70
2023/08/15 19:39:41;;;;;;;7.60;5.72;;;;;;;;;;10069302;28;20045;-71
2023/08/15 19:44:33;;;;;;;5.32;4.93;;;;;;;;;;10055564;28;20046;-72
2023/08/15 19:49:29;;;;;;;7.15;5.65;;;;;;;;;;10066709;28;20041;-71
2023/08/15 19:54:21;;;;;;;6.70;5.30;;;;;;;;;;10080248;28;20041;-72
2023/08/15 19:59:13;;;;;;;9.65;5.70;;;;;;;;;;10066178;28;20050;-73
2023/08/15 20:04:05;;;;;;;6.35;5.75;;;;;;;;;;10061942;28;20041;-73
2023/08/15 20:08:57;;;;;;;7.10;5.82;;;;;;;;;;10055331;28;20157;-72
2023/08/15 20:13:49;;;;;;;6.22;5.43;;;;;;;;;;10054953;28;20042;-71
2023/08/15 20:18:41;;;;;;;8.80;5.68;;;;;;;;;;10065669;28;20067;-72
2023/08/15 20:23:33;;;;;;;6.03;5.43;;;;;;;;;;10066432;28;20434;-73
2023/08/15 20:28:24;;;;;;;13.05;5.97;;;;;;;;;;10023053;28;20058;-73
2023/08/15 20:33:18;;;;;;;7.07;6.38;;;;;;;;;;10049933;28;20455;-73
2023/08/15 20:38:10;;;;;;;6.45;5.95;;;;;;;;;;10026499;28;20050;-72
2023/08/15 20:43:02;;;;;;;6.85;6.25;;;;;;;;;;10026643;28;20081;-73
2023/08/15 20:47:54;;;;;;;6.68;5.97;;;;;;;;;;10029484;28;20041;-72
2023/08/15 20:52:46;;;;;;;7.05;6.45;;;;;;;;;;10034442;28;20502;-73
2023/08/15 20:57:38;;;;;;;11.15;7.68;;;;;;;;;;10025614;28;20099;-72
2023/08/15 21:02:29;;;;;;;6.55;6.03;;;;;;;;;;10050299;28;20042;-72
2023/08/15 21:07:21;;;;;;;7.10;6.47;;;;;;;;;;10041587;28;20099;-71
2023/08/15 21:12:14;;;;;;;9.00;8.07;;;;;;;;;;10063714;28;20471;-73
2023/08/15 21:17:06;;;;;;;7.97;7.28;;;;;;;;;;10062632;28;20379;-72
2023/08/15 21:21:58;;;;;;;8.35;7.53;;;;;;;;;;10021180;28;20092;-72
2023/08/15 21:26:50;;;;;;;7.90;7.20;;;;;;;;;;10040079;28;20045;-72
2023/08/15 21:31:43;;;;;;;8.25;7.63;;;;;;;;;;10059451;28;20119;-72
2023/08/15 21:36:35;;;;;;;8.43;7.47;;;;;;;;;;10027872;28;20049;-72
2023/08/15 21:41:27;;;;;;;7.90;7.25;;;;;;;;;;10024680;28;20435;-72
2023/08/15 21:46:19;;;;;;;8.00;7.32;;;;;;;;;;10031510;28;20164;-72
2023/08/15 21:51:11;;;;;;;7.72;7.03;;;;;;;;;;10036547;28;20046;-72
2023/08/15 21:56:03;;;;;;;7.63;7.05;;;;;;;;;;10024788;28;20050;-70
2023/08/15 22:00:56;;;;;;;9.60;7.82;;;;;;;;;;10034749;28;20058;-70
2023/08/15 22:05:48;;;;;;;8.55;7.90;;;;;;;;;;10056892;28;20076;-72
2023/08/15 22:10:40;;;;;;;8.10;7.38;;;;;;;;;;10045701;28;20049;-73
2023/08/15 22:15:32;;;;;;;10.68;9.05;;;;;;;;;;10057510;28;20099;-70
2023/08/15 22:20:24;;;;;;;8.32;7.63;;;;;;;;;;10063001;28;20537;-71
2023/08/15 22:25:17;;;;;;;11.50;7.95;;;;;;;;;;10063737;28;20096;-72
2023/08/15 22:30:09;;;;;;;8.85;7.95;;;;;;;;;;10063663;28;20145;-70
2023/08/15 22:35:01;;;;;;;8.68;7.32;;;;;;;;;;10069236;28;20037;-71
2023/08/15 22:39:53;;;;;;;8.55;7.72;;;;;;;;;;10068381;28;20038;-70
2023/08/15 22:44:46;;;;;;;9.00;8.10;;;;;;;;;;10068712;28;20765;-71
2023/08/15 22:49:38;;;;;;;8.80;8.00;;;;;;;;;;10069526;28;20069;-70
2023/08/15 22:54:29;;;;;;;8.65;7.85;;;;;;;;;;10042124;28;20050;-72
2023/08/15 22:59:21;;;;;;;8.65;8.00;;;;;;;;;;10050280;28;20137;-72
2023/08/15 23:04:13;;;;;;;14.60;8.02;;;;;;;;;;10068637;28;20045;-72
2023/08/15 23:09:05;;;;;;;11.35;8.77;;;;;;;;;;10053778;28;20060;-72
2023/08/15 23:13:57;;;;;;;8.35;7.70;;;;;;;;;;10068600;28;20127;-71
2023/08/15 23:18:49;;;;;;;8.50;7.90;;;;;;;;;;10057745;28;20046;-72
2023/08/15 23:23:43;;;;;;;8.93;8.02;;;;;;;;;;10067611;28;20049;-73
2023/08/15 23:28:35;;;;;;;9.30;8.32;;;;;;;;;;10065101;28;20037;-71
2023/08/15 23:33:27;;;;;;;14.68;9.93;;;;;;;;;;10075319;28;20452;-72
2023/08/15 23:38:19;;;;;;;9.13;8.43;;;;;;;;;;10070151;28;20040;-70
2023/08/15 23:43:11;;;;;;;8.85;8.07;;;;;;;;;;10072247;28;20041;-70
2023/08/15 23:48:03;;;;;;;8.75;7.95;;;;;;;;;;10072464;28;20551;-71
2023/08/15 23:52:55;;;;;;;9.07;8.38;;;;;;;;;;10067490;28;20087;-71
2023/08/15 23:57:47;;;;;;;9.15;8.00;;;;;;;;;;10061826;28;20049;-73
